sensor_id;sensor_type;location;lat;lon;timestamp;temperature;humidity
75615;DHT22;64199;48.578;-4.520;2023-05-10T00:01:30;21.40;65.10
75615;DHT22;64199;48.578;-4.520;2023-05-10T00:03:55;21.40;65.10
75615;DHT22;64199;48.578;-4.520;2023-05-10T00:06:21;21.40;65.20
75615;DHT22;64199;48.578;-4.520;2023-05-10T00:08:47;21.40;65.30
75615;DHT22;64199;48.578;-4.520;2023-05-10T00:11:13;21.40;65.40
75615;DHT22;64199;48.578;-4.520;2023-05-10T00:13:39;21.30;65.50
75615;DHT22;64199;48.578;-4.520;2023-05-10T00:16:05;21.30;65.40
75615;DHT22;64199;48.578;-4.520;2023-05-10T00:18:31;21.30;65.50
75615;DHT22;64199;48.578;-4.520;2023-05-10T00:20:57;21.30;65.60
75615;DHT22;64199;48.578;-4.520;2023-05-10T00:23:23;21.30;65.70
75615;DHT22;64199;48.578;-4.520;2023-05-10T00:25:48;21.30;65.70
75615;DHT22;64199;48.578;-4.520;2023-05-10T00:28:15;21.30;65.80
75615;DHT22;64199;48.578;-4.520;2023-05-10T00:30:40;21.30;65.90
75615;DHT22;64199;48.578;-4.520;2023-05-10T00:33:06;21.20;65.80
75615;DHT22;64199;48.578;-4.520;2023-05-10T00:35:32;21.20;65.90
75615;DHT22;64199;48.578;-4.520;2023-05-10T00:37:58;21.20;65.90
75615;DHT22;64199;48.578;-4.520;2023-05-10T00:40:24;21.20;65.90
75615;DHT22;64199;48.578;-4.520;2023-05-10T00:42:50;21.20;66.00
75615;DHT22;64199;48.578;-4.520;2023-05-10T00:45:16;21.20;66.00
75615;DHT22;64199;48.578;-4.520;2023-05-10T00:47:41;21.20;66.10
75615;DHT22;64199;48.578;-4.520;2023-05-10T00:50:08;21.20;66.10
75615;DHT22;64199;48.578;-4.520;2023-05-10T00:52:34;21.20;66.20
75615;DHT22;64199;48.578;-4.520;2023-05-10T00:55:00;21.20;66.30
75615;DHT22;64199;48.578;-4.520;2023-05-10T00:57:27;21.20;66.30
75615;DHT22;64199;48.578;-4.520;2023-05-10T00:59:53;21.10;66.20
75615;DHT22;64199;48.578;-4.520;2023-05-10T01:02:19;21.10;66.30
75615;DHT22;64199;48.578;-4.520;2023-05-10T01:04:45;21.10;66.20
75615;DHT22;64199;48.578;-4.520;2023-05-10T01:07:11;21.10;66.30
75615;DHT22;64199;48.578;-4.520;2023-05-10T01:09:37;21.10;66.30
75615;DHT22;64199;48.578;-4.520;2023-05-10T01:12:03;21.10;66.30
75615;DHT22;64199;48.578;-4.520;2023-05-10T01:14:32;21.10;66.30
75615;DHT22;64199;48.578;-4.520;2023-05-10T01:17:00;21.10;66.30
75615;DHT22;64199;48.578;-4.520;2023-05-10T01:19:28;21.10;66.30
75615;DHT22;64199;48.578;-4.520;2023-05-10T01:25:06;21.00;66.30
75615;DHT22;64199;48.578;-4.520;2023-05-10T01:33:27;21.00;66.40
75615;DHT22;64199;48.578;-4.520;2023-05-10T01:46:43;20.90;66.50
75615;DHT22;64199;48.578;-4.520;2023-05-10T01:49:41;20.90;66.80
75615;DHT22;64199;48.578;-4.520;2023-05-10T01:52:10;20.90;66.60
75615;DHT22;64199;48.578;-4.520;2023-05-10T01:54:44;20.90;66.50
75615;DHT22;64199;48.578;-4.520;2023-05-10T01:57:13;20.90;66.60
75615;DHT22;64199;48.578;-4.520;2023-05-10T01:59:43;20.90;66.60
75615;DHT22;64199;48.578;-4.520;2023-05-10T02:02:12;20.90;66.60
75615;DHT22;64199;48.578;-4.520;2023-05-10T02:04:39;20.80;66.60
75615;DHT22;64199;48.578;-4.520;2023-05-10T02:07:07;20.80;66.60
75615;DHT22;64199;48.578;-4.520;2023-05-10T02:09:34;20.80;66.60
75615;DHT22;64199;48.578;-4.520;2023-05-10T02:12:03;20.80;66.70
75615;DHT22;64199;48.578;-4.520;2023-05-10T02:14:36;20.80;66.70
75615;DHT22;64199;48.578;-4.520;2023-05-10T02:17:04;20.80;66.60
75615;DHT22;64199;48.578;-4.520;2023-05-10T02:19:32;20.80;66.70
75615;DHT22;64199;48.578;-4.520;2023-05-10T02:21:59;20.80;66.70
75615;DHT22;64199;48.578;-4.520;2023-05-10T02:24:27;20.70;66.60
75615;DHT22;64199;48.578;-4.520;2023-05-10T02:26:55;20.70;66.70
75615;DHT22;64199;48.578;-4.520;2023-05-10T02:29:25;20.70;66.80
75615;DHT22;64199;48.578;-4.520;2023-05-10T02:31:54;20.70;66.90
75615;DHT22;64199;48.578;-4.520;2023-05-10T02:34:22;20.70;66.90
75615;DHT22;64199;48.578;-4.520;2023-05-10T02:36:49;20.70;66.90
75615;DHT22;64199;48.578;-4.520;2023-05-10T02:39:18;20.70;67.00
75615;DHT22;64199;48.578;-4.520;2023-05-10T02:41:45;20.70;66.90
75615;DHT22;64199;48.578;-4.520;2023-05-10T02:44:13;20.70;66.90
75615;DHT22;64199;48.578;-4.520;2023-05-10T02:46:40;20.70;66.90
75615;DHT22;64199;48.578;-4.520;2023-05-10T02:49:06;20.60;67.00
75615;DHT22;64199;48.578;-4.520;2023-05-10T02:51:35;20.70;67.00
75615;DHT22;64199;48.578;-4.520;2023-05-10T02:54:09;20.60;67.00
75615;DHT22;64199;48.578;-4.520;2023-05-10T02:56:40;20.70;67.10
75615;DHT22;64199;48.578;-4.520;2023-05-10T02:59:08;20.60;67.00
75615;DHT22;64199;48.578;-4.520;2023-05-10T03:01:34;20.70;67.10
75615;DHT22;64199;48.578;-4.520;2023-05-10T03:04:00;20.60;67.00
75615;DHT22;64199;48.578;-4.520;2023-05-10T03:06:26;20.60;67.10
75615;DHT22;64199;48.578;-4.520;2023-05-10T03:08:52;20.60;67.10
75615;DHT22;64199;48.578;-4.520;2023-05-10T03:14:31;20.60;67.20
75615;DHT22;64199;48.578;-4.520;2023-05-10T03:17:15;20.60;67.20
75615;DHT22;64199;48.578;-4.520;2023-05-10T03:20:11;20.60;67.30
75615;DHT22;64199;48.578;-4.520;2023-05-10T03:22:43;20.60;67.40
75615;DHT22;64199;48.578;-4.520;2023-05-10T03:25:11;20.60;67.40
75615;DHT22;64199;48.578;-4.520;2023-05-10T03:27:40;20.60;67.50
75615;DHT22;64199;48.578;-4.520;2023-05-10T03:30:11;20.60;67.50
75615;DHT22;64199;48.578;-4.520;2023-05-10T03:32:38;20.60;67.70
75615;DHT22;64199;48.578;-4.520;2023-05-10T03:35:11;20.60;68.10
75615;DHT22;64199;48.578;-4.520;2023-05-10T03:37:38;20.60;67.90
75615;DHT22;64199;48.578;-4.520;2023-05-10T03:40:05;20.60;68.70
75615;DHT22;64199;48.578;-4.520;2023-05-10T03:42:31;20.60;67.90
75615;DHT22;64199;48.578;-4.520;2023-05-10T03:44:57;20.50;67.80
75615;DHT22;64199;48.578;-4.520;2023-05-10T03:47:23;20.60;67.80
75615;DHT22;64199;48.578;-4.520;2023-05-10T03:49:49;20.50;67.80
75615;DHT22;64199;48.578;-4.520;2023-05-10T03:52:15;20.50;67.90
75615;DHT22;64199;48.578;-4.520;2023-05-10T03:54:40;20.60;67.90
75615;DHT22;64199;48.578;-4.520;2023-05-10T03:57:06;20.60;67.90
75615;DHT22;64199;48.578;-4.520;2023-05-10T03:59:32;20.60;67.90
75615;DHT22;64199;48.578;-4.520;2023-05-10T04:01:58;20.50;67.80
75615;DHT22;64199;48.578;-4.520;2023-05-10T04:04:24;20.50;67.80
75615;DHT22;64199;48.578;-4.520;2023-05-10T04:06:50;20.50;67.90
75615;DHT22;64199;48.578;-4.520;2023-05-10T04:09:15;20.50;67.90
75615;DHT22;64199;48.578;-4.520;2023-05-10T04:11:42;20.50;67.90
75615;DHT22;64199;48.578;-4.520;2023-05-10T04:14:08;20.50;67.90
75615;DHT22;64199;48.578;-4.520;2023-05-10T04:16:34;20.50;67.90
75615;DHT22;64199;48.578;-4.520;2023-05-10T04:19:00;20.50;67.90
75615;DHT22;64199;48.578;-4.520;2023-05-10T04:21:26;20.50;67.90
75615;DHT22;64199;48.578;-4.520;2023-05-10T04:23:52;20.50;67.90
75615;DHT22;64199;48.578;-4.520;2023-05-10T04:26:18;20.50;67.90
75615;DHT22;64199;48.578;-4.520;2023-05-10T04:28:43;20.50;67.90
75615;DHT22;64199;48.578;-4.520;2023-05-10T04:31:10;20.50;67.90
75615;DHT22;64199;48.578;-4.520;2023-05-10T04:33:36;20.50;67.90
75615;DHT22;64199;48.578;-4.520;2023-05-10T04:36:02;20.50;67.90
75615;DHT22;64199;48.578;-4.520;2023-05-10T04:38:28;20.50;68.00
75615;DHT22;64199;48.578;-4.520;2023-05-10T04:41:03;20.50;68.00
75615;DHT22;64199;48.578;-4.520;2023-05-10T04:43:28;20.50;68.10
75615;DHT22;64199;48.578;-4.520;2023-05-10T04:45:56;20.50;68.10
75615;DHT22;64199;48.578;-4.520;2023-05-10T04:48:22;20.50;68.10
75615;DHT22;64199;48.578;-4.520;2023-05-10T04:50:48;20.50;68.10
75615;DHT22;64199;48.578;-4.520;2023-05-10T04:53:14;20.50;68.10
75615;DHT22;64199;48.578;-4.520;2023-05-10T04:55:40;20.50;68.10
75615;DHT22;64199;48.578;-4.520;2023-05-10T04:58:06;20.50;68.10
75615;DHT22;64199;48.578;-4.520;2023-05-10T05:00:33;20.50;68.20
75615;DHT22;64199;48.578;-4.520;2023-05-10T05:02:59;20.50;68.20
75615;DHT22;64199;48.578;-4.520;2023-05-10T05:05:25;20.50;68.20
75615;DHT22;64199;48.578;-4.520;2023-05-10T05:07:51;20.50;68.30
75615;DHT22;64199;48.578;-4.520;2023-05-10T05:10:17;20.40;68.20
75615;DHT22;64199;48.578;-4.520;2023-05-10T05:12:42;20.40;68.10
75615;DHT22;64199;48.578;-4.520;2023-05-10T05:15:08;20.40;68.10
75615;DHT22;64199;48.578;-4.520;2023-05-10T05:17:35;20.40;68.10
75615;DHT22;64199;48.578;-4.520;2023-05-10T05:20:01;20.40;68.20
75615;DHT22;64199;48.578;-4.520;2023-05-10T05:22:27;20.40;68.20
75615;DHT22;64199;48.578;-4.520;2023-05-10T05:24:54;20.40;68.20
75615;DHT22;64199;48.578;-4.520;2023-05-10T05:27:20;20.40;68.10
75615;DHT22;64199;48.578;-4.520;2023-05-10T05:29:50;20.40;68.10
75615;DHT22;64199;48.578;-4.520;2023-05-10T05:32:16;20.40;68.10
75615;DHT22;64199;48.578;-4.520;2023-05-10T05:34:44;20.40;67.50
75615;DHT22;64199;48.578;-4.520;2023-05-10T05:37:19;20.40;68.10
75615;DHT22;64199;48.578;-4.520;2023-05-10T05:39:45;20.40;67.50
75615;DHT22;64199;48.578;-4.520;2023-05-10T05:42:12;20.40;68.30
75615;DHT22;64199;48.578;-4.520;2023-05-10T05:44:38;20.40;68.30
75615;DHT22;64199;48.578;-4.520;2023-05-10T05:47:05;20.40;68.30
75615;DHT22;64199;48.578;-4.520;2023-05-10T05:49:31;20.30;68.10
75615;DHT22;64199;48.578;-4.520;2023-05-10T05:52:01;20.40;68.30
75615;DHT22;64199;48.578;-4.520;2023-05-10T05:54:27;20.40;68.30
75615;DHT22;64199;48.578;-4.520;2023-05-10T05:56:55;20.40;68.20
75615;DHT22;64199;48.578;-4.520;2023-05-10T05:59:21;20.30;68.10
75615;DHT22;64199;48.578;-4.520;2023-05-10T06:01:47;20.30;68.10
75615;DHT22;64199;48.578;-4.520;2023-05-10T06:04:13;20.30;68.10
75615;DHT22;64199;48.578;-4.520;2023-05-10T06:06:39;20.30;68.20
75615;DHT22;64199;48.578;-4.520;2023-05-10T06:09:05;20.30;68.30
75615;DHT22;64199;48.578;-4.520;2023-05-10T06:11:30;20.30;67.60
75615;DHT22;64199;48.578;-4.520;2023-05-10T06:13:58;20.40;68.30
75615;DHT22;64199;48.578;-4.520;2023-05-10T06:16:24;20.30;68.30
75615;DHT22;64199;48.578;-4.520;2023-05-10T06:18:50;20.30;68.30
75615;DHT22;64199;48.578;-4.520;2023-05-10T06:21:16;20.30;68.30
75615;DHT22;64199;48.578;-4.520;2023-05-10T06:23:42;20.30;68.30
75615;DHT22;64199;48.578;-4.520;2023-05-10T06:26:08;20.30;68.40
75615;DHT22;64199;48.578;-4.520;2023-05-10T06:28:34;20.30;68.40
75615;DHT22;64199;48.578;-4.520;2023-05-10T06:31:00;20.30;68.40
75615;DHT22;64199;48.578;-4.520;2023-05-10T06:33:26;20.30;68.40
75615;DHT22;64199;48.578;-4.520;2023-05-10T06:35:52;20.30;68.50
75615;DHT22;64199;48.578;-4.520;2023-05-10T06:38:17;20.30;68.50
75615;DHT22;64199;48.578;-4.520;2023-05-10T06:40:43;20.30;68.50
75615;DHT22;64199;48.578;-4.520;2023-05-10T06:43:10;20.20;68.40
75615;DHT22;64199;48.578;-4.520;2023-05-10T06:45:36;20.20;68.50
75615;DHT22;64199;48.578;-4.520;2023-05-10T06:48:02;20.20;68.40
75615;DHT22;64199;48.578;-4.520;2023-05-10T06:50:28;20.20;67.80
75615;DHT22;64199;48.578;-4.520;2023-05-10T06:52:54;20.20;68.40
75615;DHT22;64199;48.578;-4.520;2023-05-10T06:55:21;20.20;68.40
75615;DHT22;64199;48.578;-4.520;2023-05-10T06:57:46;20.20;68.50
75615;DHT22;64199;48.578;-4.520;2023-05-10T07:00:13;20.20;68.50
75615;DHT22;64199;48.578;-4.520;2023-05-10T07:02:39;20.20;68.50
75615;DHT22;64199;48.578;-4.520;2023-05-10T07:05:05;20.20;68.50
75615;DHT22;64199;48.578;-4.520;2023-05-10T07:07:31;20.20;68.50
75615;DHT22;64199;48.578;-4.520;2023-05-10T07:09:57;20.20;68.60
75615;DHT22;64199;48.578;-4.520;2023-05-10T07:12:24;20.20;68.60
75615;DHT22;64199;48.578;-4.520;2023-05-10T07:14:50;20.20;68.60
75615;DHT22;64199;48.578;-4.520;2023-05-10T07:17:15;20.20;68.60
75615;DHT22;64199;48.578;-4.520;2023-05-10T07:19:41;20.20;68.60
75615;DHT22;64199;48.578;-4.520;2023-05-10T07:22:07;20.20;68.70
75615;DHT22;64199;48.578;-4.520;2023-05-10T07:24:33;20.20;68.70
75615;DHT22;64199;48.578;-4.520;2023-05-10T07:26:59;20.20;68.70
75615;DHT22;64199;48.578;-4.520;2023-05-10T07:29:25;20.20;68.70
75615;DHT22;64199;48.578;-4.520;2023-05-10T07:31:51;20.20;68.70
75615;DHT22;64199;48.578;-4.520;2023-05-10T07:34:17;20.20;68.70
75615;DHT22;64199;48.578;-4.520;2023-05-10T07:36:43;20.20;68.80
75615;DHT22;64199;48.578;-4.520;2023-05-10T07:39:09;20.20;68.80
75615;DHT22;64199;48.578;-4.520;2023-05-10T07:41:34;20.20;68.80
75615;DHT22;64199;48.578;-4.520;2023-05-10T07:44:00;20.20;68.80
75615;DHT22;64199;48.578;-4.520;2023-05-10T07:46:26;20.20;68.80
75615;DHT22;64199;48.578;-4.520;2023-05-10T07:48:52;20.20;68.90
75615;DHT22;64199;48.578;-4.520;2023-05-10T07:51:18;20.20;68.90
75615;DHT22;64199;48.578;-4.520;2023-05-10T07:53:44;20.20;69.00
75615;DHT22;64199;48.578;-4.520;2023-05-10T07:58:46;20.20;68.90
75615;DHT22;64199;48.578;-4.520;2023-05-10T08:01:12;20.20;68.90
75615;DHT22;64199;48.578;-4.520;2023-05-10T08:03:38;20.20;69.00
75615;DHT22;64199;48.578;-4.520;2023-05-10T08:06:04;20.20;69.00
75615;DHT22;64199;48.578;-4.520;2023-05-10T08:08:30;20.20;68.90
75615;DHT22;64199;48.578;-4.520;2023-05-10T08:10:56;20.20;68.90
75615;DHT22;64199;48.578;-4.520;2023-05-10T08:13:21;20.20;69.00
75615;DHT22;64199;48.578;-4.520;2023-05-10T08:15:47;20.20;69.00
75615;DHT22;64199;48.578;-4.520;2023-05-10T08:18:13;20.20;69.00
75615;DHT22;64199;48.578;-4.520;2023-05-10T08:20:39;20.20;69.00
75615;DHT22;64199;48.578;-4.520;2023-05-10T08:23:05;20.20;69.00
75615;DHT22;64199;48.578;-4.520;2023-05-10T08:25:31;20.30;68.40
75615;DHT22;64199;48.578;-4.520;2023-05-10T08:27:57;20.20;68.90
75615;DHT22;64199;48.578;-4.520;2023-05-10T08:30:23;20.20;68.30
75615;DHT22;64199;48.578;-4.520;2023-05-10T08:32:49;20.20;69.10
75615;DHT22;64199;48.578;-4.520;2023-05-10T08:35:15;20.20;69.00
75615;DHT22;64199;48.578;-4.520;2023-05-10T08:37:41;20.20;69.10
75615;DHT22;64199;48.578;-4.520;2023-05-10T08:40:08;20.20;69.10
75615;DHT22;64199;48.578;-4.520;2023-05-10T08:42:40;20.20;69.10
75615;DHT22;64199;48.578;-4.520;2023-05-10T08:45:08;20.20;69.10
75615;DHT22;64199;48.578;-4.520;2023-05-10T08:47:36;20.20;69.10
75615;DHT22;64199;48.578;-4.520;2023-05-10T08:50:03;20.20;69.20
75615;DHT22;64199;48.578;-4.520;2023-05-10T08:52:30;20.20;69.10
75615;DHT22;64199;48.578;-4.520;2023-05-10T08:54:58;20.20;69.00
75615;DHT22;64199;48.578;-4.520;2023-05-10T08:57:24;20.20;69.00
75615;DHT22;64199;48.578;-4.520;2023-05-10T08:59:50;20.20;69.00
75615;DHT22;64199;48.578;-4.520;2023-05-10T09:02:17;20.20;69.10
75615;DHT22;64199;48.578;-4.520;2023-05-10T09:04:43;20.20;69.10
75615;DHT22;64199;48.578;-4.520;2023-05-10T09:07:10;20.20;69.10
75615;DHT22;64199;48.578;-4.520;2023-05-10T09:09:36;20.20;69.10
75615;DHT22;64199;48.578;-4.520;2023-05-10T09:12:03;20.20;69.10
75615;DHT22;64199;48.578;-4.520;2023-05-10T09:14:29;20.20;69.20
75615;DHT22;64199;48.578;-4.520;2023-05-10T09:16:56;20.20;69.20
75615;DHT22;64199;48.578;-4.520;2023-05-10T09:19:22;20.20;69.20
75615;DHT22;64199;48.578;-4.520;2023-05-10T09:21:49;20.20;69.20
75615;DHT22;64199;48.578;-4.520;2023-05-10T09:24:15;20.30;69.30
75615;DHT22;64199;48.578;-4.520;2023-05-10T09:26:48;20.30;69.30
75615;DHT22;64199;48.578;-4.520;2023-05-10T09:29:14;20.30;69.30
75615;DHT22;64199;48.578;-4.520;2023-05-10T09:31:47;20.30;69.20
75615;DHT22;64199;48.578;-4.520;2023-05-10T09:34:20;20.30;69.20
75615;DHT22;64199;48.578;-4.520;2023-05-10T09:36:58;20.30;69.20
75615;DHT22;64199;48.578;-4.520;2023-05-10T09:39:32;20.20;69.10
75615;DHT22;64199;48.578;-4.520;2023-05-10T09:42:01;20.30;69.20
75615;DHT22;64199;48.578;-4.520;2023-05-10T09:44:29;20.30;69.10
75615;DHT22;64199;48.578;-4.520;2023-05-10T09:46:55;20.30;69.60
75615;DHT22;64199;48.578;-4.520;2023-05-10T09:49:22;20.30;69.20
75615;DHT22;64199;48.578;-4.520;2023-05-10T09:52:07;20.30;69.10
75615;DHT22;64199;48.578;-4.520;2023-05-10T09:54:33;20.30;69.10
75615;DHT22;64199;48.578;-4.520;2023-05-10T09:57:00;20.30;69.40
75615;DHT22;64199;48.578;-4.520;2023-05-10T09:59:27;20.30;69.10
75615;DHT22;64199;48.578;-4.520;2023-05-10T10:01:56;20.30;69.10
75615;DHT22;64199;48.578;-4.520;2023-05-10T10:04:22;20.30;69.10
75615;DHT22;64199;48.578;-4.520;2023-05-10T10:07:21;20.30;69.00
75615;DHT22;64199;48.578;-4.520;2023-05-10T10:09:47;20.30;69.10
75615;DHT22;64199;48.578;-4.520;2023-05-10T10:12:13;20.30;69.00
75615;DHT22;64199;48.578;-4.520;2023-05-10T10:14:39;20.30;69.10
75615;DHT22;64199;48.578;-4.520;2023-05-10T10:17:06;20.30;69.10
75615;DHT22;64199;48.578;-4.520;2023-05-10T10:19:33;20.30;69.10
75615;DHT22;64199;48.578;-4.520;2023-05-10T10:22:00;20.30;69.60
75615;DHT22;64199;48.578;-4.520;2023-05-10T10:24:26;20.30;69.20
75615;DHT22;64199;48.578;-4.520;2023-05-10T10:26:55;20.30;69.20
75615;DHT22;64199;48.578;-4.520;2023-05-10T10:29:44;20.30;69.60
75615;DHT22;64199;48.578;-4.520;2023-05-10T10:35:22;20.30;69.20
75615;DHT22;64199;48.578;-4.520;2023-05-10T10:37:50;20.30;69.10
75615;DHT22;64199;48.578;-4.520;2023-05-10T10:40:30;20.30;69.20
75615;DHT22;64199;48.578;-4.520;2023-05-10T10:42:57;20.30;69.30
75615;DHT22;64199;48.578;-4.520;2023-05-10T10:45:24;20.30;69.30
75615;DHT22;64199;48.578;-4.520;2023-05-10T10:48:22;20.30;69.30
75615;DHT22;64199;48.578;-4.520;2023-05-10T10:50:56;20.40;69.50
75615;DHT22;64199;48.578;-4.520;2023-05-10T10:53:26;20.30;69.40
75615;DHT22;64199;48.578;-4.520;2023-05-10T10:56:05;20.40;69.40
75615;DHT22;64199;48.578;-4.520;2023-05-10T10:58:33;20.40;69.50
75615;DHT22;64199;48.578;-4.520;2023-05-10T11:01:18;20.40;69.50
75615;DHT22;64199;48.578;-4.520;2023-05-10T11:06:32;20.40;69.50
75615;DHT22;64199;48.578;-4.520;2023-05-10T11:09:06;20.40;69.50
75615;DHT22;64199;48.578;-4.520;2023-05-10T11:11:34;20.40;69.50
75615;DHT22;64199;48.578;-4.520;2023-05-10T11:14:05;20.40;69.50
75615;DHT22;64199;48.578;-4.520;2023-05-10T11:16:43;20.40;69.50
75615;DHT22;64199;48.578;-4.520;2023-05-10T11:19:15;20.40;69.40
75615;DHT22;64199;48.578;-4.520;2023-05-10T11:21:52;20.40;69.30
75615;DHT22;64199;48.578;-4.520;2023-05-10T11:24:37;20.40;69.20
75615;DHT22;64199;48.578;-4.520;2023-05-10T11:27:03;20.40;69.20
75615;DHT22;64199;48.578;-4.520;2023-05-10T11:29:29;20.40;69.20
75615;DHT22;64199;48.578;-4.520;2023-05-10T11:31:58;20.40;69.10
75615;DHT22;64199;48.578;-4.520;2023-05-10T11:34:27;20.50;69.10
75615;DHT22;64199;48.578;-4.520;2023-05-10T11:36:56;20.50;69.00
75615;DHT22;64199;48.578;-4.520;2023-05-10T11:39:27;20.50;68.80
75615;DHT22;64199;48.578;-4.520;2023-05-10T11:41:53;20.50;68.80
75615;DHT22;64199;48.578;-4.520;2023-05-10T11:44:19;20.50;68.70
75615;DHT22;64199;48.578;-4.520;2023-05-10T11:46:45;20.40;68.70
75615;DHT22;64199;48.578;-4.520;2023-05-10T11:49:11;20.50;68.60
75615;DHT22;64199;48.578;-4.520;2023-05-10T11:51:37;20.50;68.60
75615;DHT22;64199;48.578;-4.520;2023-05-10T11:54:09;20.50;68.60
75615;DHT22;64199;48.578;-4.520;2023-05-10T11:56:39;20.50;68.60
75615;DHT22;64199;48.578;-4.520;2023-05-10T11:59:06;20.50;68.40
75615;DHT22;64199;48.578;-4.520;2023-05-10T12:01:32;20.50;68.40
75615;DHT22;64199;48.578;-4.520;2023-05-10T12:03:58;20.50;68.30
75615;DHT22;64199;48.578;-4.520;2023-05-10T12:06:27;20.50;68.30
75615;DHT22;64199;48.578;-4.520;2023-05-10T12:08:53;20.50;68.30
75615;DHT22;64199;48.578;-4.520;2023-05-10T12:11:20;20.40;68.20
75615;DHT22;64199;48.578;-4.520;2023-05-10T12:13:50;20.40;68.30
75615;DHT22;64199;48.578;-4.520;2023-05-10T12:16:21;20.40;68.30
75615;DHT22;64199;48.578;-4.520;2023-05-10T12:18:51;20.40;68.20
75615;DHT22;64199;48.578;-4.520;2023-05-10T12:21:19;20.40;68.20
75615;DHT22;64199;48.578;-4.520;2023-05-10T12:23:46;20.40;68.20
75615;DHT22;64199;48.578;-4.520;2023-05-10T12:26:12;20.40;68.20
75615;DHT22;64199;48.578;-4.520;2023-05-10T12:28:38;20.40;68.10
75615;DHT22;64199;48.578;-4.520;2023-05-10T12:31:08;20.40;68.10
75615;DHT22;64199;48.578;-4.520;2023-05-10T12:36:08;20.40;68.10
75615;DHT22;64199;48.578;-4.520;2023-05-10T12:38:35;20.40;68.00
75615;DHT22;64199;48.578;-4.520;2023-05-10T12:41:08;20.40;68.00
75615;DHT22;64199;48.578;-4.520;2023-05-10T12:43:35;20.40;68.00
75615;DHT22;64199;48.578;-4.520;2023-05-10T12:46:08;20.40;68.00
75615;DHT22;64199;48.578;-4.520;2023-05-10T12:48:35;20.40;67.90
75615;DHT22;64199;48.578;-4.520;2023-05-10T12:51:02;20.30;67.20
75615;DHT22;64199;48.578;-4.520;2023-05-10T12:53:28;20.30;67.70
75615;DHT22;64199;48.578;-4.520;2023-05-10T12:55:54;20.30;67.30
75615;DHT22;64199;48.578;-4.520;2023-05-10T12:58:20;20.40;68.00
75615;DHT22;64199;48.578;-4.520;2023-05-10T13:00:46;20.30;68.00
75615;DHT22;64199;48.578;-4.520;2023-05-10T13:03:12;20.40;68.10
75615;DHT22;64199;48.578;-4.520;2023-05-10T13:05:38;20.30;68.00
75615;DHT22;64199;48.578;-4.520;2023-05-10T13:08:04;20.30;68.00
75615;DHT22;64199;48.578;-4.520;2023-05-10T13:10:31;20.30;68.00
75615;DHT22;64199;48.578;-4.520;2023-05-10T13:12:58;20.30;67.90
75615;DHT22;64199;48.578;-4.520;2023-05-10T13:15:24;20.30;67.90
75615;DHT22;64199;48.578;-4.520;2023-05-10T13:17:50;20.40;67.90
75615;DHT22;64199;48.578;-4.520;2023-05-10T13:20:16;20.30;67.80
75615;DHT22;64199;48.578;-4.520;2023-05-10T13:22:45;20.40;67.90
75615;DHT22;64199;48.578;-4.520;2023-05-10T13:25:11;20.30;67.80
75615;DHT22;64199;48.578;-4.520;2023-05-10T13:27:39;20.30;67.80
75615;DHT22;64199;48.578;-4.520;2023-05-10T13:30:07;20.30;67.80
75615;DHT22;64199;48.578;-4.520;2023-05-10T13:32:33;20.40;67.80
75615;DHT22;64199;48.578;-4.520;2023-05-10T13:34:59;20.40;67.80
75615;DHT22;64199;48.578;-4.520;2023-05-10T13:37:25;20.40;67.80
75615;DHT22;64199;48.578;-4.520;2023-05-10T13:39:51;20.30;67.70
75615;DHT22;64199;48.578;-4.520;2023-05-10T13:42:17;20.30;67.70
75615;DHT22;64199;48.578;-4.520;2023-05-10T13:44:43;20.30;67.70
75615;DHT22;64199;48.578;-4.520;2023-05-10T13:47:09;20.40;67.70
75615;DHT22;64199;48.578;-4.520;2023-05-10T13:49:36;20.30;67.60
75615;DHT22;64199;48.578;-4.520;2023-05-10T13:52:01;20.30;67.60
75615;DHT22;64199;48.578;-4.520;2023-05-10T13:54:36;20.30;67.60
75615;DHT22;64199;48.578;-4.520;2023-05-10T13:57:02;20.40;67.70
75615;DHT22;64199;48.578;-4.520;2023-05-10T13:59:28;20.30;68.50
75615;DHT22;64199;48.578;-4.520;2023-05-10T14:01:54;20.30;67.60
75615;DHT22;64199;48.578;-4.520;2023-05-10T14:04:20;20.30;67.60
75615;DHT22;64199;48.578;-4.520;2023-05-10T14:06:46;20.30;67.60
75615;DHT22;64199;48.578;-4.520;2023-05-10T14:09:12;20.40;67.70
75615;DHT22;64199;48.578;-4.520;2023-05-10T14:11:38;20.40;67.60
75615;DHT22;64199;48.578;-4.520;2023-05-10T14:14:07;20.30;67.50
75615;DHT22;64199;48.578;-4.520;2023-05-10T14:16:33;20.40;67.60
75615;DHT22;64199;48.578;-4.520;2023-05-10T14:18:59;20.40;67.60
75615;DHT22;64199;48.578;-4.520;2023-05-10T14:21:25;20.30;67.50
75615;DHT22;64199;48.578;-4.520;2023-05-10T14:23:51;20.40;68.40
75615;DHT22;64199;48.578;-4.520;2023-05-10T14:26:17;20.30;67.50
75615;DHT22;64199;48.578;-4.520;2023-05-10T14:28:42;20.40;67.60
75615;DHT22;64199;48.578;-4.520;2023-05-10T14:31:08;20.40;67.70
75615;DHT22;64199;48.578;-4.520;2023-05-10T14:33:34;20.30;67.50
75615;DHT22;64199;48.578;-4.520;2023-05-10T14:36:00;20.30;67.50
75615;DHT22;64199;48.578;-4.520;2023-05-10T14:38:25;20.30;67.60
75615;DHT22;64199;48.578;-4.520;2023-05-10T14:40:52;20.30;67.60
75615;DHT22;64199;48.578;-4.520;2023-05-10T14:43:17;20.30;67.50
75615;DHT22;64199;48.578;-4.520;2023-05-10T14:45:43;20.30;67.50
75615;DHT22;64199;48.578;-4.520;2023-05-10T14:48:10;20.30;67.60
75615;DHT22;64199;48.578;-4.520;2023-05-10T14:50:40;20.30;67.50
75615;DHT22;64199;48.578;-4.520;2023-05-10T14:53:06;20.40;67.50
75615;DHT22;64199;48.578;-4.520;2023-05-10T14:55:32;20.40;67.60
75615;DHT22;64199;48.578;-4.520;2023-05-10T14:57:58;20.40;67.60
75615;DHT22;64199;48.578;-4.520;2023-05-10T15:00:24;20.30;67.50
75615;DHT22;64199;48.578;-4.520;2023-05-10T15:02:50;20.30;67.50
75615;DHT22;64199;48.578;-4.520;2023-05-10T15:05:16;20.40;67.50
75615;DHT22;64199;48.578;-4.520;2023-05-10T15:07:42;20.30;67.50
75615;DHT22;64199;48.578;-4.520;2023-05-10T15:10:09;20.30;67.50
75615;DHT22;64199;48.578;-4.520;2023-05-10T15:12:36;20.30;67.50
75615;DHT22;64199;48.578;-4.520;2023-05-10T15:15:02;20.40;67.60
75615;DHT22;64199;48.578;-4.520;2023-05-10T15:17:29;20.30;67.50
75615;DHT22;64199;48.578;-4.520;2023-05-10T15:19:55;20.30;67.50
75615;DHT22;64199;48.578;-4.520;2023-05-10T15:22:21;20.30;67.50
75615;DHT22;64199;48.578;-4.520;2023-05-10T15:24:47;20.30;67.50
75615;DHT22;64199;48.578;-4.520;2023-05-10T15:27:13;20.30;67.40
75615;DHT22;64199;48.578;-4.520;2023-05-10T15:29:39;20.30;67.40
75615;DHT22;64199;48.578;-4.520;2023-05-10T15:32:05;20.30;67.40
75615;DHT22;64199;48.578;-4.520;2023-05-10T15:34:31;20.30;67.50
75615;DHT22;64199;48.578;-4.520;2023-05-10T15:36:56;20.30;67.40
75615;DHT22;64199;48.578;-4.520;2023-05-10T15:39:22;20.30;67.50
75615;DHT22;64199;48.578;-4.520;2023-05-10T15:41:48;20.30;67.60
75615;DHT22;64199;48.578;-4.520;2023-05-10T15:44:14;20.30;67.50
75615;DHT22;64199;48.578;-4.520;2023-05-10T15:46:40;20.30;67.60
75615;DHT22;64199;48.578;-4.520;2023-05-10T15:49:05;20.30;67.50
75615;DHT22;64199;48.578;-4.520;2023-05-10T15:51:32;20.30;67.50